sensor_id;sensor_type;location;lat;lon;timestamp;P1;durP1;ratioP1;P2;durP2;ratioP2
56927;SDS011;60850;52.502;13.426;2022-07-17T00:01:35;9.73;;;2.10;;
56927;SDS011;60850;52.502;13.426;2022-07-17T00:04:02;5.88;;;1.35;;
56927;SDS011;60850;52.502;13.426;2022-07-17T00:06:29;4.50;;;1.48;;
56927;SDS011;60850;52.502;13.426;2022-07-17T00:08:56;3.55;;;1.50;;
56927;SDS011;60850;52.502;13.426;2022-07-17T00:11:23;6.82;;;1.60;;
56927;SDS011;60850;52.502;13.426;2022-07-17T00:13:51;8.73;;;4.38;;
56927;SDS011;60850;52.502;13.426;2022-07-17T00:16:20;6.72;;;3.72;;
56927;SDS011;60850;52.502;13.426;2022-07-17T00:18:46;10.23;;;3.28;;
56927;SDS011;60850;52.502;13.426;2022-07-17T00:21:13;7.10;;;6.38;;
56927;SDS011;60850;52.502;13.426;2022-07-17T00:23:40;8.15;;;4.45;;
56927;SDS011;60850;52.502;13.426;2022-07-17T00:26:08;5.82;;;4.00;;
56927;SDS011;60850;52.502;13.426;2022-07-17T00:28:35;8.57;;;3.60;;
56927;SDS011;60850;52.502;13.426;2022-07-17T00:31:02;6.20;;;2.90;;
56927;SDS011;60850;52.502;13.426;2022-07-17T00:33:30;5.93;;;1.90;;
56927;SDS011;60850;52.502;13.426;2022-07-17T00:35:57;6.80;;;2.40;;
56927;SDS011;60850;52.502;13.426;2022-07-17T00:38:24;5.68;;;2.40;;
56927;SDS011;60850;52.502;13.426;2022-07-17T00:40:52;12.38;;;5.30;;
56927;SDS011;60850;52.502;13.426;2022-07-17T00:43:19;7.70;;;3.83;;
56927;SDS011;60850;52.502;13.426;2022-07-17T00:45:53;7.38;;;2.80;;
56927;SDS011;60850;52.502;13.426;2022-07-17T00:48:21;6.90;;;2.97;;
56927;SDS011;60850;52.502;13.426;2022-07-17T00:50:49;6.47;;;2.10;;
56927;SDS011;60850;52.502;13.426;2022-07-17T00:53:16;3.65;;;1.48;;
56927;SDS011;60850;52.502;13.426;2022-07-17T00:55:43;6.68;;;1.33;;
56927;SDS011;60850;52.502;13.426;2022-07-17T00:58:12;3.00;;;1.25;;
56927;SDS011;60850;52.502;13.426;2022-07-17T01:00:45;6.20;;;1.50;;
56927;SDS011;60850;52.502;13.426;2022-07-17T01:03:13;6.88;;;1.75;;
56927;SDS011;60850;52.502;13.426;2022-07-17T01:05:41;7.82;;;2.70;;
56927;SDS011;60850;52.502;13.426;2022-07-17T01:08:09;8.73;;;2.58;;
56927;SDS011;60850;52.502;13.426;2022-07-17T01:10:36;8.07;;;4.78;;
56927;SDS011;60850;52.502;13.426;2022-07-17T01:13:03;10.18;;;3.13;;
56927;SDS011;60850;52.502;13.426;2022-07-17T01:15:31;5.40;;;2.42;;
56927;SDS011;60850;52.502;13.426;2022-07-17T01:17:59;6.35;;;2.40;;
56927;SDS011;60850;52.502;13.426;2022-07-17T01:20:29;8.75;;;2.30;;
56927;SDS011;60850;52.502;13.426;2022-07-17T01:22:58;6.35;;;2.08;;
56927;SDS011;60850;52.502;13.426;2022-07-17T01:25:25;3.15;;;1.80;;
56927;SDS011;60850;52.502;13.426;2022-07-17T01:27:51;10.82;;;2.53;;
56927;SDS011;60850;52.502;13.426;2022-07-17T01:30:18;2.80;;;1.48;;
56927;SDS011;60850;52.502;13.426;2022-07-17T01:32:46;5.13;;;1.38;;
56927;SDS011;60850;52.502;13.426;2022-07-17T01:35:13;3.78;;;1.38;;
56927;SDS011;60850;52.502;13.426;2022-07-17T01:37:41;3.65;;;1.40;;
56927;SDS011;60850;52.502;13.426;2022-07-17T01:40:12;6.88;;;1.60;;
56927;SDS011;60850;52.502;13.426;2022-07-17T01:42:41;2.65;;;1.13;;
56927;SDS011;60850;52.502;13.426;2022-07-17T01:45:09;7.10;;;1.02;;
56927;SDS011;60850;52.502;13.426;2022-07-17T01:47:36;5.95;;;1.23;;
56927;SDS011;60850;52.502;13.426;2022-07-17T01:50:03;3.15;;;1.00;;
56927;SDS011;60850;52.502;13.426;2022-07-17T01:52:34;9.05;;;1.60;;
56927;SDS011;60850;52.502;13.426;2022-07-17T01:55:02;7.85;;;1.58;;
56927;SDS011;60850;52.502;13.426;2022-07-17T01:57:31;4.78;;;1.00;;
56927;SDS011;60850;52.502;13.426;2022-07-17T01:59:58;5.50;;;1.20;;
56927;SDS011;60850;52.502;13.426;2022-07-17T02:02:25;7.05;;;1.27;;
56927;SDS011;60850;52.502;13.426;2022-07-17T02:04:52;4.05;;;1.13;;
56927;SDS011;60850;52.502;13.426;2022-07-17T02:07:19;3.95;;;1.15;;
56927;SDS011;60850;52.502;13.426;2022-07-17T02:09:45;6.57;;;1.55;;
56927;SDS011;60850;52.502;13.426;2022-07-17T02:12:12;7.43;;;1.35;;
56927;SDS011;60850;52.502;13.426;2022-07-17T02:14:40;5.78;;;1.45;;
56927;SDS011;60850;52.502;13.426;2022-07-17T02:17:07;3.92;;;1.00;;
56927;SDS011;60850;52.502;13.426;2022-07-17T02:19:34;4.40;;;1.25;;
56927;SDS011;60850;52.502;13.426;2022-07-17T02:22:01;4.35;;;1.08;;
56927;SDS011;60850;52.502;13.426;2022-07-17T02:24:28;4.47;;;1.17;;
56927;SDS011;60850;52.502;13.426;2022-07-17T02:26:54;3.45;;;1.05;;
56927;SDS011;60850;52.502;13.426;2022-07-17T02:29:21;5.00;;;1.17;;
56927;SDS011;60850;52.502;13.426;2022-07-17T02:31:49;2.67;;;1.08;;
56927;SDS011;60850;52.502;13.426;2022-07-17T02:34:16;3.22;;;1.23;;
56927;SDS011;60850;52.502;13.426;2022-07-17T02:36:43;5.45;;;1.30;;
56927;SDS011;60850;52.502;13.426;2022-07-17T02:39:10;5.13;;;1.70;;
56927;SDS011;60850;52.502;13.426;2022-07-17T02:41:36;5.60;;;1.38;;
56927;SDS011;60850;52.502;13.426;2022-07-17T02:44:03;2.55;;;1.20;;
56927;SDS011;60850;52.502;13.426;2022-07-17T02:46:30;5.68;;;2.65;;
56927;SDS011;60850;52.502;13.426;2022-07-17T02:48:58;4.05;;;1.40;;
56927;SDS011;60850;52.502;13.426;2022-07-17T02:51:25;5.18;;;1.25;;
56927;SDS011;60850;52.502;13.426;2022-07-17T02:53:52;6.65;;;1.85;;
56927;SDS011;60850;52.502;13.426;2022-07-17T02:56:19;3.97;;;1.27;;
56927;SDS011;60850;52.502;13.426;2022-07-17T02:58:45;2.88;;;1.00;;
56927;SDS011;60850;52.502;13.426;2022-07-17T03:01:12;7.30;;;1.73;;
56927;SDS011;60850;52.502;13.426;2022-07-17T03:03:39;9.77;;;1.27;;
56927;SDS011;60850;52.502;13.426;2022-07-17T03:06:08;3.35;;;1.23;;
56927;SDS011;60850;52.502;13.426;2022-07-17T03:08:34;4.15;;;1.20;;
56927;SDS011;60850;52.502;13.426;2022-07-17T03:11:01;7.70;;;1.23;;
56927;SDS011;60850;52.502;13.426;2022-07-17T03:13:28;3.72;;;1.17;;
56927;SDS011;60850;52.502;13.426;2022-07-17T03:15:55;2.70;;;1.33;;
56927;SDS011;60850;52.502;13.426;2022-07-17T03:18:22;2.78;;;1.20;;
56927;SDS011;60850;52.502;13.426;2022-07-17T03:20:48;4.93;;;1.48;;
56927;SDS011;60850;52.502;13.426;2022-07-17T03:23:17;6.20;;;1.42;;
56927;SDS011;60850;52.502;13.426;2022-07-17T03:25:44;6.22;;;1.38;;
56927;SDS011;60850;52.502;13.426;2022-07-17T03:28:11;7.22;;;1.48;;
56927;SDS011;60850;52.502;13.426;2022-07-17T03:30:37;3.00;;;1.30;;
56927;SDS011;60850;52.502;13.426;2022-07-17T03:33:04;3.47;;;1.02;;
56927;SDS011;60850;52.502;13.426;2022-07-17T03:35:31;5.47;;;1.30;;
56927;SDS011;60850;52.502;13.426;2022-07-17T03:37:58;3.97;;;1.30;;
56927;SDS011;60850;52.502;13.426;2022-07-17T03:40:26;5.90;;;1.20;;
56927;SDS011;60850;52.502;13.426;2022-07-17T03:42:53;4.28;;;1.20;;
56927;SDS011;60850;52.502;13.426;2022-07-17T03:45:19;3.25;;;1.02;;
56927;SDS011;60850;52.502;13.426;2022-07-17T03:47:46;3.58;;;1.13;;
56927;SDS011;60850;52.502;13.426;2022-07-17T03:50:13;3.85;;;0.85;;
56927;SDS011;60850;52.502;13.426;2022-07-17T03:52:40;4.43;;;1.50;;
56927;SDS011;60850;52.502;13.426;2022-07-17T03:55:07;5.97;;;1.60;;
56927;SDS011;60850;52.502;13.426;2022-07-17T03:57:36;5.72;;;1.40;;
56927;SDS011;60850;52.502;13.426;2022-07-17T04:00:03;3.40;;;1.00;;
56927;SDS011;60850;52.502;13.426;2022-07-17T04:02:31;5.13;;;1.33;;
56927;SDS011;60850;52.502;13.426;2022-07-17T04:04:57;6.95;;;1.00;;
56927;SDS011;60850;52.502;13.426;2022-07-17T04:07:24;6.35;;;1.23;;
56927;SDS011;60850;52.502;13.426;2022-07-17T04:09:55;4.20;;;1.45;;
56927;SDS011;60850;52.502;13.426;2022-07-17T04:12:23;4.32;;;1.38;;
56927;SDS011;60850;52.502;13.426;2022-07-17T04:14:52;3.95;;;1.55;;
56927;SDS011;60850;52.502;13.426;2022-07-17T04:17:18;3.88;;;1.00;;
56927;SDS011;60850;52.502;13.426;2022-07-17T04:19:45;4.93;;;1.33;;
56927;SDS011;60850;52.502;13.426;2022-07-17T04:22:12;7.20;;;1.10;;
56927;SDS011;60850;52.502;13.426;2022-07-17T04:24:39;7.57;;;2.00;;
56927;SDS011;60850;52.502;13.426;2022-07-17T04:27:06;6.88;;;1.15;;
56927;SDS011;60850;52.502;13.426;2022-07-17T04:29:34;3.35;;;1.45;;
56927;SDS011;60850;52.502;13.426;2022-07-17T04:32:02;6.35;;;1.33;;
56927;SDS011;60850;52.502;13.426;2022-07-17T04:34:30;4.45;;;1.05;;
56927;SDS011;60850;52.502;13.426;2022-07-17T04:36:58;3.58;;;1.38;;
56927;SDS011;60850;52.502;13.426;2022-07-17T04:39:25;4.22;;;1.25;;
56927;SDS011;60850;52.502;13.426;2022-07-17T04:41:51;6.57;;;1.02;;
56927;SDS011;60850;52.502;13.426;2022-07-17T04:44:18;5.13;;;1.15;;
56927;SDS011;60850;52.502;13.426;2022-07-17T04:46:45;4.47;;;1.38;;
56927;SDS011;60850;52.502;13.426;2022-07-17T04:49:14;5.93;;;1.20;;
56927;SDS011;60850;52.502;13.426;2022-07-17T04:51:40;8.73;;;1.98;;
56927;SDS011;60850;52.502;13.426;2022-07-17T04:54:07;3.83;;;1.35;;
56927;SDS011;60850;52.502;13.426;2022-07-17T04:56:34;4.00;;;1.00;;
56927;SDS011;60850;52.502;13.426;2022-07-17T04:59:01;7.10;;;1.30;;
56927;SDS011;60850;52.502;13.426;2022-07-17T05:01:29;6.95;;;1.38;;
56927;SDS011;60850;52.502;13.426;2022-07-17T05:03:56;5.60;;;1.15;;
56927;SDS011;60850;52.502;13.426;2022-07-17T05:06:24;5.57;;;1.38;;
56927;SDS011;60850;52.502;13.426;2022-07-17T05:08:51;3.28;;;1.02;;
56927;SDS011;60850;52.502;13.426;2022-07-17T05:11:17;2.03;;;1.00;;
56927;SDS011;60850;52.502;13.426;2022-07-17T05:13:44;5.18;;;1.17;;
56927;SDS011;60850;52.502;13.426;2022-07-17T05:16:12;5.53;;;1.65;;
56927;SDS011;60850;52.502;13.426;2022-07-17T05:18:39;2.72;;;1.00;;
56927;SDS011;60850;52.502;13.426;2022-07-17T05:21:06;6.22;;;1.30;;
56927;SDS011;60850;52.502;13.426;2022-07-17T05:23:34;7.68;;;1.00;;
56927;SDS011;60850;52.502;13.426;2022-07-17T05:26:01;3.47;;;1.23;;
56927;SDS011;60850;52.502;13.426;2022-07-17T05:28:28;3.85;;;0.90;;
56927;SDS011;60850;52.502;13.426;2022-07-17T05:30:54;5.22;;;1.00;;
56927;SDS011;60850;52.502;13.426;2022-07-17T05:33:21;2.80;;;0.98;;
56927;SDS011;60850;52.502;13.426;2022-07-17T05:35:48;4.25;;;1.00;;
56927;SDS011;60850;52.502;13.426;2022-07-17T05:38:15;4.60;;;1.15;;
56927;SDS011;60850;52.502;13.426;2022-07-17T05:40:43;2.33;;;0.98;;
56927;SDS011;60850;52.502;13.426;2022-07-17T05:43:10;4.85;;;1.00;;
56927;SDS011;60850;52.502;13.426;2022-07-17T05:45:37;8.35;;;2.13;;
56927;SDS011;60850;52.502;13.426;2022-07-17T05:48:05;6.50;;;1.38;;
56927;SDS011;60850;52.502;13.426;2022-07-17T05:50:32;4.90;;;1.30;;
56927;SDS011;60850;52.502;13.426;2022-07-17T05:52:59;5.70;;;1.27;;
56927;SDS011;60850;52.502;13.426;2022-07-17T05:55:26;4.50;;;1.25;;
56927;SDS011;60850;52.502;13.426;2022-07-17T05:57:54;11.55;;;2.40;;
56927;SDS011;60850;52.502;13.426;2022-07-17T06:00:21;4.45;;;1.42;;
56927;SDS011;60850;52.502;13.426;2022-07-17T06:02:48;6.97;;;1.75;;
56927;SDS011;60850;52.502;13.426;2022-07-17T06:05:14;4.38;;;1.10;;
56927;SDS011;60850;52.502;13.426;2022-07-17T06:07:42;5.22;;;1.60;;
56927;SDS011;60850;52.502;13.426;2022-07-17T06:10:10;5.22;;;2.03;;
56927;SDS011;60850;52.502;13.426;2022-07-17T06:12:37;6.72;;;1.80;;
56927;SDS011;60850;52.502;13.426;2022-07-17T06:15:06;6.22;;;1.85;;
56927;SDS011;60850;52.502;13.426;2022-07-17T06:17:33;5.90;;;1.70;;
56927;SDS011;60850;52.502;13.426;2022-07-17T06:20:00;5.47;;;1.63;;
56927;SDS011;60850;52.502;13.426;2022-07-17T06:22:27;4.28;;;1.42;;
56927;SDS011;60850;52.502;13.426;2022-07-17T06:24:54;5.57;;;1.30;;
56927;SDS011;60850;52.502;13.426;2022-07-17T06:27:20;5.20;;;1.50;;
56927;SDS011;60850;52.502;13.426;2022-07-17T06:29:48;5.93;;;1.65;;
56927;SDS011;60850;52.502;13.426;2022-07-17T06:32:16;3.75;;;0.88;;
56927;SDS011;60850;52.502;13.426;2022-07-17T06:34:43;4.78;;;1.50;;
56927;SDS011;60850;52.502;13.426;2022-07-17T06:37:10;6.88;;;2.10;;
56927;SDS011;60850;52.502;13.426;2022-07-17T06:39:37;5.68;;;1.60;;
56927;SDS011;60850;52.502;13.426;2022-07-17T06:42:04;3.08;;;1.10;;
56927;SDS011;60850;52.502;13.426;2022-07-17T06:44:30;7.05;;;2.10;;
56927;SDS011;60850;52.502;13.426;2022-07-17T06:46:58;2.83;;;0.93;;
56927;SDS011;60850;52.502;13.426;2022-07-17T06:49:26;2.50;;;1.13;;
56927;SDS011;60850;52.502;13.426;2022-07-17T06:51:53;6.22;;;1.00;;
56927;SDS011;60850;52.502;13.426;2022-07-17T06:54:20;5.45;;;1.90;;
56927;SDS011;60850;52.502;13.426;2022-07-17T06:56:48;5.70;;;1.60;;
56927;SDS011;60850;52.502;13.426;2022-07-17T06:59:15;6.43;;;2.00;;
56927;SDS011;60850;52.502;13.426;2022-07-17T07:01:42;6.75;;;2.33;;
56927;SDS011;60850;52.502;13.426;2022-07-17T07:04:09;6.75;;;2.35;;
56927;SDS011;60850;52.502;13.426;2022-07-17T07:06:39;4.10;;;1.45;;
56927;SDS011;60850;52.502;13.426;2022-07-17T07:09:07;3.70;;;1.55;;
56927;SDS011;60850;52.502;13.426;2022-07-17T07:11:33;3.50;;;1.05;;
56927;SDS011;60850;52.502;13.426;2022-07-17T07:14:00;4.85;;;1.38;;
56927;SDS011;60850;52.502;13.426;2022-07-17T07:16:27;4.93;;;1.25;;
56927;SDS011;60850;52.502;13.426;2022-07-17T07:18:54;6.45;;;1.30;;
56927;SDS011;60850;52.502;13.426;2022-07-17T07:21:21;4.07;;;1.52;;
56927;SDS011;60850;52.502;13.426;2022-07-17T07:23:49;3.63;;;1.00;;
56927;SDS011;60850;52.502;13.426;2022-07-17T07:26:16;4.50;;;0.98;;
56927;SDS011;60850;52.502;13.426;2022-07-17T07:28:43;3.80;;;1.02;;
56927;SDS011;60850;52.502;13.426;2022-07-17T07:31:10;4.05;;;1.20;;
56927;SDS011;60850;52.502;13.426;2022-07-17T07:33:36;6.15;;;1.20;;
56927;SDS011;60850;52.502;13.426;2022-07-17T07:36:04;4.93;;;1.00;;
56927;SDS011;60850;52.502;13.426;2022-07-17T07:38:31;6.05;;;1.65;;
56927;SDS011;60850;52.502;13.426;2022-07-17T07:40:59;3.30;;;1.02;;
56927;SDS011;60850;52.502;13.426;2022-07-17T07:43:26;7.38;;;2.58;;
56927;SDS011;60850;52.502;13.426;2022-07-17T07:45:53;7.85;;;2.72;;
56927;SDS011;60850;52.502;13.426;2022-07-17T07:48:20;5.78;;;1.45;;
56927;SDS011;60850;52.502;13.426;2022-07-17T07:50:47;3.80;;;1.30;;
56927;SDS011;60850;52.502;13.426;2022-07-17T07:53:14;7.22;;;1.45;;
56927;SDS011;60850;52.502;13.426;2022-07-17T07:55:41;5.55;;;1.45;;
56927;SDS011;60850;52.502;13.426;2022-07-17T07:58:09;5.97;;;1.23;;
56927;SDS011;60850;52.502;13.426;2022-07-17T08:00:37;5.78;;;2.03;;
56927;SDS011;60850;52.502;13.426;2022-07-17T08:03:06;7.07;;;2.08;;
56927;SDS011;60850;52.502;13.426;2022-07-17T08:05:33;6.35;;;1.75;;
56927;SDS011;60850;52.502;13.426;2022-07-17T08:08:00;4.05;;;1.20;;
56927;SDS011;60850;52.502;13.426;2022-07-17T08:10:27;5.00;;;1.20;;
56927;SDS011;60850;52.502;13.426;2022-07-17T08:12:54;2.90;;;1.05;;
56927;SDS011;60850;52.502;13.426;2022-07-17T08:15:22;3.75;;;1.17;;
56927;SDS011;60850;52.502;13.426;2022-07-17T08:17:51;5.80;;;1.10;;
56927;SDS011;60850;52.502;13.426;2022-07-17T08:20:19;4.30;;;1.00;;
56927;SDS011;60850;52.502;13.426;2022-07-17T08:22:46;3.50;;;1.20;;
56927;SDS011;60850;52.502;13.426;2022-07-17T08:25:14;3.55;;;1.30;;
56927;SDS011;60850;52.502;13.426;2022-07-17T08:27:41;4.53;;;1.10;;
56927;SDS011;60850;52.502;13.426;2022-07-17T08:30:10;3.70;;;1.40;;
56927;SDS011;60850;52.502;13.426;2022-07-17T08:32:40;6.53;;;1.45;;
56927;SDS011;60850;52.502;13.426;2022-07-17T08:35:08;6.50;;;1.30;;
56927;SDS011;60850;52.502;13.426;2022-07-17T08:37:42;5.10;;;1.23;;
56927;SDS011;60850;52.502;13.426;2022-07-17T08:40:14;8.48;;;1.60;;
56927;SDS011;60850;52.502;13.426;2022-07-17T08:42:45;5.65;;;1.00;;
56927;SDS011;60850;52.502;13.426;2022-07-17T08:45:12;4.63;;;1.13;;
56927;SDS011;60850;52.502;13.426;2022-07-17T08:47:40;3.22;;;0.90;;
56927;SDS011;60850;52.502;13.426;2022-07-17T08:50:08;3.17;;;1.08;;
56927;SDS011;60850;52.502;13.426;2022-07-17T08:52:36;2.90;;;1.10;;
56927;SDS011;60850;52.502;13.426;2022-07-17T08:55:04;6.35;;;1.73;;
56927;SDS011;60850;52.502;13.426;2022-07-17T08:57:36;4.65;;;0.80;;
56927;SDS011;60850;52.502;13.426;2022-07-17T09:00:05;3.00;;;0.80;;
56927;SDS011;60850;52.502;13.426;2022-07-17T09:02:33;5.15;;;0.93;;
56927;SDS011;60850;52.502;13.426;2022-07-17T09:05:02;4.90;;;0.98;;
56927;SDS011;60850;52.502;13.426;2022-07-17T09:07:30;6.78;;;1.20;;
56927;SDS011;60850;52.502;13.426;2022-07-17T09:09:57;3.95;;;1.00;;
56927;SDS011;60850;52.502;13.426;2022-07-17T09:12:25;4.35;;;0.93;;
56927;SDS011;60850;52.502;13.426;2022-07-17T09:14:53;3.00;;;1.23;;
56927;SDS011;60850;52.502;13.426;2022-07-17T09:17:20;4.47;;;1.38;;
56927;SDS011;60850;52.502;13.426;2022-07-17T09:19:48;3.47;;;1.30;;
56927;SDS011;60850;52.502;13.426;2022-07-17T09:22:17;4.53;;;1.67;;
56927;SDS011;60850;52.502;13.426;2022-07-17T09:24:46;6.22;;;1.33;;
56927;SDS011;60850;52.502;13.426;2022-07-17T09:27:15;3.05;;;0.85;;
56927;SDS011;60850;52.502;13.426;2022-07-17T09:29:55;4.78;;;1.02;;
56927;SDS011;60850;52.502;13.426;2022-07-17T09:32:24;4.72;;;0.73;;
56927;SDS011;60850;52.502;13.426;2022-07-17T09:34:53;4.55;;;1.23;;
56927;SDS011;60850;52.502;13.426;2022-07-17T09:37:22;5.07;;;1.17;;
56927;SDS011;60850;52.502;13.426;2022-07-17T09:39:50;4.97;;;0.82;;
56927;SDS011;60850;52.502;13.426;2022-07-17T09:42:22;4.13;;;0.90;;
56927;SDS011;60850;52.502;13.426;2022-07-17T09:44:56;6.88;;;1.35;;
56927;SDS011;60850;52.502;13.426;2022-07-17T09:47:24;2.95;;;0.80;;
56927;SDS011;60850;52.502;13.426;2022-07-17T09:49:52;5.25;;;1.20;;
56927;SDS011;60850;52.502;13.426;2022-07-17T09:52:20;5.30;;;1.30;;
56927;SDS011;60850;52.502;13.426;2022-07-17T09:54:51;5.10;;;1.42;;
56927;SDS011;60850;52.502;13.426;2022-07-17T09:57:19;4.25;;;1.20;;
56927;SDS011;60850;52.502;13.426;2022-07-17T09:59:47;6.80;;;1.40;;
56927;SDS011;60850;52.502;13.426;2022-07-17T10:02:15;4.63;;;0.90;;
56927;SDS011;60850;52.502;13.426;2022-07-17T10:04:43;3.47;;;1.17;;
56927;SDS011;60850;52.502;13.426;2022-07-17T10:07:11;6.15;;;1.20;;
56927;SDS011;60850;52.502;13.426;2022-07-17T10:09:40;3.90;;;0.90;;
56927;SDS011;60850;52.502;13.426;2022-07-17T10:12:07;5.05;;;1.40;;
56927;SDS011;60850;52.502;13.426;2022-07-17T10:14:34;3.47;;;0.90;;
56927;SDS011;60850;52.502;13.426;2022-07-17T10:17:07;8.45;;;1.30;;
56927;SDS011;60850;52.502;13.426;2022-07-17T10:19:43;5.63;;;1.75;;
56927;SDS011;60850;52.502;13.426;2022-07-17T10:22:13;5.90;;;1.98;;
56927;SDS011;60850;52.502;13.426;2022-07-17T10:24:47;4.05;;;1.13;;
56927;SDS011;60850;52.502;13.426;2022-07-17T10:27:20;5.03;;;1.10;;
56927;SDS011;60850;52.502;13.426;2022-07-17T10:29:58;6.38;;;1.20;;
56927;SDS011;60850;52.502;13.426;2022-07-17T10:32:26;2.45;;;1.27;;
56927;SDS011;60850;52.502;13.426;2022-07-17T10:34:56;6.80;;;1.80;;
56927;SDS011;60850;52.502;13.426;2022-07-17T10:37:25;5.68;;;1.30;;
56927;SDS011;60850;52.502;13.426;2022-07-17T10:39:59;3.33;;;1.48;;
56927;SDS011;60850;52.502;13.426;2022-07-17T10:42:41;4.20;;;1.45;;
56927;SDS011;60850;52.502;13.426;2022-07-17T10:45:13;5.22;;;1.30;;
56927;SDS011;60850;52.502;13.426;2022-07-17T10:50:31;3.75;;;1.42;;
56927;SDS011;60850;52.502;13.426;2022-07-17T10:53:12;4.93;;;1.40;;
56927;SDS011;60850;52.502;13.426;2022-07-17T10:55:44;2.72;;;1.20;;
56927;SDS011;60850;52.502;13.426;2022-07-17T10:58:16;4.35;;;1.30;;
56927;SDS011;60850;52.502;13.426;2022-07-17T11:00:54;5.20;;;1.13;;
56927;SDS011;60850;52.502;13.426;2022-07-17T11:03:22;4.80;;;1.38;;
56927;SDS011;60850;52.502;13.426;2022-07-17T11:05:49;4.90;;;1.50;;
56927;SDS011;60850;52.502;13.426;2022-07-17T11:08:16;7.18;;;1.60;;
56927;SDS011;60850;52.502;13.426;2022-07-17T11:10:45;6.97;;;1.63;;
56927;SDS011;60850;52.502;13.426;2022-07-17T11:13:13;3.63;;;1.42;;
56927;SDS011;60850;52.502;13.426;2022-07-17T11:15:42;5.45;;;1.38;;
56927;SDS011;60850;52.502;13.426;2022-07-17T11:18:10;3.30;;;1.23;;
56927;SDS011;60850;52.502;13.426;2022-07-17T11:20:48;4.20;;;1.30;;
56927;SDS011;60850;52.502;13.426;2022-07-17T11:23:16;3.40;;;1.33;;
56927;SDS011;60850;52.502;13.426;2022-07-17T11:25:55;3.60;;;1.10;;
56927;SDS011;60850;52.502;13.426;2022-07-17T11:28:32;4.95;;;1.55;;
56927;SDS011;60850;52.502;13.426;2022-07-17T11:31:01;5.28;;;1.10;;
56927;SDS011;60850;52.502;13.426;2022-07-17T11:33:29;3.88;;;1.10;;
56927;SDS011;60850;52.502;13.426;2022-07-17T11:35:56;6.22;;;1.50;;
56927;SDS011;60850;52.502;13.426;2022-07-17T11:38:25;5.78;;;1.30;;
56927;SDS011;60850;52.502;13.426;2022-07-17T11:40:54;4.13;;;1.30;;
56927;SDS011;60850;52.502;13.426;2022-07-17T11:43:22;3.97;;;1.33;;
56927;SDS011;60850;52.502;13.426;2022-07-17T11:45:49;5.78;;;1.35;;
56927;SDS011;60850;52.502;13.426;2022-07-17T11:48:16;6.80;;;1.27;;
56927;SDS011;60850;52.502;13.426;2022-07-17T11:50:53;7.10;;;1.90;;
56927;SDS011;60850;52.502;13.426;2022-07-17T11:53:30;3.28;;;1.45;;
56927;SDS011;60850;52.502;13.426;2022-07-17T11:56:00;10.40;;;2.13;;
56927;SDS011;60850;52.502;13.426;2022-07-17T11:58:27;4.00;;;1.35;;
56927;SDS011;60850;52.502;13.426;2022-07-17T12:01:03;3.83;;;1.40;;
56927;SDS011;60850;52.502;13.426;2022-07-17T12:03:31;6.07;;;1.42;;
56927;SDS011;60850;52.502;13.426;2022-07-17T12:05:57;4.47;;;1.17;;
56927;SDS011;60850;52.502;13.426;2022-07-17T12:08:24;4.78;;;1.30;;
56927;SDS011;60850;52.502;13.426;2022-07-17T12:11:06;9.48;;;1.50;;
56927;SDS011;60850;52.502;13.426;2022-07-17T12:13:38;3.30;;;1.38;;
56927;SDS011;60850;52.502;13.426;2022-07-17T12:16:26;3.65;;;1.00;;
56927;SDS011;60850;52.502;13.426;2022-07-17T12:18:59;3.83;;;1.10;;
56927;SDS011;60850;52.502;13.426;2022-07-17T12:21:30;4.57;;;1.30;;
56927;SDS011;60850;52.502;13.426;2022-07-17T12:24:00;4.15;;;0.98;;
56927;SDS011;60850;52.502;13.426;2022-07-17T12:26:30;4.78;;;1.60;;
56927;SDS011;60850;52.502;13.426;2022-07-17T12:28:58;3.17;;;1.98;;
56927;SDS011;60850;52.502;13.426;2022-07-17T12:31:25;3.17;;;1.42;;
56927;SDS011;60850;52.502;13.426;2022-07-17T12:33:53;3.42;;;1.30;;
56927;SDS011;60850;52.502;13.426;2022-07-17T12:36:21;3.75;;;1.23;;
56927;SDS011;60850;52.502;13.426;2022-07-17T12:38:48;4.03;;;1.50;;
56927;SDS011;60850;52.502;13.426;2022-07-17T12:41:15;3.50;;;1.15;;
56927;SDS011;60850;52.502;13.426;2022-07-17T12:43:44;4.32;;;1.35;;
56927;SDS011;60850;52.502;13.426;2022-07-17T12:46:11;4.45;;;1.58;;
56927;SDS011;60850;52.502;13.426;2022-07-17T12:48:38;4.95;;;1.55;;
56927;SDS011;60850;52.502;13.426;2022-07-17T12:51:07;3.42;;;1.30;;
56927;SDS011;60850;52.502;13.426;2022-07-17T12:53:34;6.28;;;1.40;;
56927;SDS011;60850;52.502;13.426;2022-07-17T12:56:02;3.75;;;1.38;;
56927;SDS011;60850;52.502;13.426;2022-07-17T12:58:30;11.50;;;1.90;;
56927;SDS011;60850;52.502;13.426;2022-07-17T13:00:58;3.97;;;1.50;;
56927;SDS011;60850;52.502;13.426;2022-07-17T13:03:24;6.05;;;1.10;;
56927;SDS011;60850;52.502;13.426;2022-07-17T13:05:52;2.80;;;1.08;;
56927;SDS011;60850;52.502;13.426;2022-07-17T13:08:18;3.20;;;1.13;;
56927;SDS011;60850;52.502;13.426;2022-07-17T13:10:45;2.17;;;0.95;;
56927;SDS011;60850;52.502;13.426;2022-07-17T13:13:12;4.47;;;1.30;;
56927;SDS011;60850;52.502;13.426;2022-07-17T13:15:39;4.28;;;1.35;;
56927;SDS011;60850;52.502;13.426;2022-07-17T13:18:07;3.00;;;1.63;;
56927;SDS011;60850;52.502;13.426;2022-07-17T13:20:34;4.38;;;1.70;;
56927;SDS011;60850;52.502;13.426;2022-07-17T13:23:01;4.10;;;1.40;;
56927;SDS011;60850;52.502;13.426;2022-07-17T13:25:28;4.18;;;1.10;;
56927;SDS011;60850;52.502;13.426;2022-07-17T13:27:55;4.30;;;1.17;;
56927;SDS011;60850;52.502;13.426;2022-07-17T13:30:22;4.53;;;2.00;;
56927;SDS011;60850;52.502;13.426;2022-07-17T13:32:49;6.35;;;1.30;;
56927;SDS011;60850;52.502;13.426;2022-07-17T13:35:17;4.97;;;1.20;;
56927;SDS011;60850;52.502;13.426;2022-07-17T13:37:44;5.18;;;1.10;;
56927;SDS011;60850;52.502;13.426;2022-07-17T13:40:11;2.13;;;1.10;;
56927;SDS011;60850;52.502;13.426;2022-07-17T13:42:38;4.53;;;1.35;;
56927;SDS011;60850;52.502;13.426;2022-07-17T13:45:05;4.65;;;1.08;;
56927;SDS011;60850;52.502;13.426;2022-07-17T13:47:33;3.88;;;1.05;;
56927;SDS011;60850;52.502;13.426;2022-07-17T13:50:00;3.30;;;1.27;;
56927;SDS011;60850;52.502;13.426;2022-07-17T13:52:28;4.22;;;1.17;;
56927;SDS011;60850;52.502;13.426;2022-07-17T13:54:55;3.92;;;1.10;;
56927;SDS011;60850;52.502;13.426;2022-07-17T13:57:22;5.22;;;1.38;;
56927;SDS011;60850;52.502;13.426;2022-07-17T13:59:49;2.67;;;1.00;;
56927;SDS011;60850;52.502;13.426;2022-07-17T14:02:16;4.72;;;1.25;;
56927;SDS011;60850;52.502;13.426;2022-07-17T14:04:43;4.18;;;1.42;;
56927;SDS011;60850;52.502;13.426;2022-07-17T14:07:10;2.75;;;1.08;;
56927;SDS011;60850;52.502;13.426;2022-07-17T14:09:38;1.95;;;1.02;;
56927;SDS011;60850;52.502;13.426;2022-07-17T14:12:05;3.55;;;1.45;;
56927;SDS011;60850;52.502;13.426;2022-07-17T14:14:32;2.03;;;1.02;;
56927;SDS011;60850;52.502;13.426;2022-07-17T14:17:00;3.10;;;1.58;;
56927;SDS011;60850;52.502;13.426;2022-07-17T14:19:27;4.97;;;1.30;;
56927;SDS011;60850;52.502;13.426;2022-07-17T14:21:54;2.53;;;1.00;;
56927;SDS011;60850;52.502;13.426;2022-07-17T14:24:20;5.00;;;1.25;;
56927;SDS011;60850;52.502;13.426;2022-07-17T14:26:49;9.50;;;1.40;;
56927;SDS011;60850;52.502;13.426;2022-07-17T14:29:16;4.82;;;1.20;;
56927;SDS011;60850;52.502;13.426;2022-07-17T14:31:42;5.18;;;1.60;;
56927;SDS011;60850;52.502;13.426;2022-07-17T14:34:09;4.25;;;1.52;;
56927;SDS011;60850;52.502;13.426;2022-07-17T14:36:36;5.85;;;1.58;;
56927;SDS011;60850;52.502;13.426;2022-07-17T14:39:03;5.88;;;1.40;;
56927;SDS011;60850;52.502;13.426;2022-07-17T14:41:30;6.32;;;2.10;;